Time;durP1;ratioP1;P1;durP2;ratioP2;P2;SDS_P1;SDS_P2;PMS_P1;PMS_P2;Temp;Humidity;BMP_temperature;BMP_pressure;BME280_temperature;BME280_humidity;BME280_pressure;Samples;Min_cycle;Max_cycle;Signal;HPM_P1;HPM_P2
2022/04/26 03:36:11;;;;;;;16.63;2.30;;;;;;;;;;5052076;28;20291;-70
2022/04/26 03:38:41;;;;;;;16.55;2.45;;;;;;;;;;5052011;28;20228;-70
2022/04/26 03:41:09;;;;;;;13.00;2.10;;;;;;;;;;5051929;28;20197;-70
2022/04/26 03:43:37;;;;;;;17.33;3.08;;;;;;;;;;5051984;28;20276;-70
2022/04/26 03:46:04;;;;;;;18.05;3.05;;;;;;;;;;5051713;28;20233;-70
2022/04/26 03:48:32;;;;;;;14.18;2.03;;;;;;;;;;5051689;28;20667;-70
2022/04/26 03:51:01;;;;;;;12.60;2.00;;;;;;;;;;5051737;28;20201;-70
2022/04/26 03:53:29;;;;;;;13.35;2.40;;;;;;;;;;5051445;28;20204;-70
2022/04/26 03:55:56;;;;;;;12.43;1.95;;;;;;;;;;5051279;28;20663;-70
2022/04/26 03:58:26;;;;;;;16.50;2.17;;;;;;;;;;5051713;28;20212;-70
2022/04/26 04:00:54;;;;;;;16.53;2.27;;;;;;;;;;5051525;28;20444;-70
2022/04/26 04:03:21;;;;;;;13.70;2.47;;;;;;;;;;5051300;28;20438;-70
2022/04/26 04:05:49;;;;;;;12.93;2.40;;;;;;;;;;5051524;28;20867;-70
2022/04/26 04:08:18;;;;;;;15.83;1.83;;;;;;;;;;5051987;28;20466;-70
2022/04/26 04:10:45;;;;;;;12.63;2.37;;;;;;;;;;5051572;28;20444;-70
2022/04/26 04:13:13;;;;;;;12.33;1.70;;;;;;;;;;5051404;28;20436;-71
2022/04/26 04:15:41;;;;;;;14.10;2.00;;;;;;;;;;5051364;28;20444;-71
2022/04/26 04:19:17;;;;;;;12.60;2.03;;;;;;;;;;5051708;28;20444;-70
2022/04/26 04:20:56;;;;;;;17.13;1.90;;;;;;;;;;5051545;28;20436;-71
2022/04/26 04:23:25;;;;;;;13.20;2.00;;;;;;;;;;5051193;28;20439;-71
2022/04/26 04:25:52;;;;;;;12.80;1.80;;;;;;;;;;5051186;28;20483;-71
2022/04/26 04:28:19;;;;;;;12.47;1.77;;;;;;;;;;5051326;28;20949;-70
2022/04/26 04:30:47;;;;;;;24.80;2.00;;;;;;;;;;5051489;28;20440;-70
2022/04/26 04:33:15;;;;;;;19.70;1.90;;;;;;;;;;5051723;28;20528;-71
2022/04/26 04:35:42;;;;;;;12.17;1.93;;;;;;;;;;5052274;28;20475;-71
2022/04/26 04:38:10;;;;;;;14.30;2.23;;;;;;;;;;5055465;28;20476;-71
2022/04/26 04:40:39;;;;;;;13.87;2.00;;;;;;;;;;5055055;28;20453;-71
2022/04/26 04:43:07;;;;;;;12.97;2.40;;;;;;;;;;5055272;28;20441;-71
2022/04/26 04:45:34;;;;;;;13.33;1.80;;;;;;;;;;5054930;28;20509;-71
2022/04/26 04:48:05;;;;;;;13.80;2.10;;;;;;;;;;5055221;28;20453;-71
2022/04/26 04:50:33;;;;;;;13.50;2.07;;;;;;;;;;5055115;28;20443;-71
2022/04/26 04:53:00;;;;;;;12.97;2.00;;;;;;;;;;5054712;28;20494;-71
2022/04/26 04:55:28;;;;;;;17.17;2.70;;;;;;;;;;5054857;28;20456;-71
2022/04/26 04:57:56;;;;;;;13.30;1.60;;;;;;;;;;5054529;28;20472;-71
2022/04/26 05:00:24;;;;;;;16.30;2.03;;;;;;;;;;5054787;28;20970;-71
2022/04/26 05:02:51;;;;;;;13.77;2.00;;;;;;;;;;5054803;28;20444;-71
2022/04/26 05:05:19;;;;;;;15.70;2.10;;;;;;;;;;5054311;28;20490;-71
2022/04/26 05:07:47;;;;;;;13.23;1.70;;;;;;;;;;5054498;28;20854;-70
2022/04/26 05:10:15;;;;;;;17.07;2.60;;;;;;;;;;5054533;28;20439;-71
2022/04/26 05:12:43;;;;;;;16.53;2.00;;;;;;;;;;5054543;28;20436;-71
2022/04/26 05:15:12;;;;;;;14.80;2.30;;;;;;;;;;5054222;28;20481;-72
2022/04/26 05:17:39;;;;;;;14.63;2.40;;;;;;;;;;5054510;28;20447;-71
2022/04/26 05:20:08;;;;;;;14.23;2.33;;;;;;;;;;5054407;28;20442;-72
2022/04/26 05:24:53;;;;;;;12.83;2.00;;;;;;;;;;5054665;28;20880;-71
2022/04/26 05:25:22;;;;;;;12.40;1.77;;;;;;;;;;5054018;28;20485;-71
2022/04/26 05:27:50;;;;;;;14.80;2.90;;;;;;;;;;5054308;28;20541;-72
2022/04/26 05:30:18;;;;;;;18.17;3.00;;;;;;;;;;5054178;28;20956;-72
2022/04/26 05:32:46;;;;;;;15.93;2.40;;;;;;;;;;5054098;28;20749;-72
2022/04/26 05:35:13;;;;;;;15.03;2.43;;;;;;;;;;5053587;28;20522;-71
2022/04/26 05:37:41;;;;;;;17.43;2.70;;;;;;;;;;5054685;28;20455;-71
2022/04/26 05:40:09;;;;;;;12.93;2.30;;;;;;;;;;5054177;28;20537;-72
2022/04/26 05:42:38;;;;;;;14.00;2.60;;;;;;;;;;5054177;28;20540;-72
2022/04/26 05:45:06;;;;;;;15.77;2.97;;;;;;;;;;5053774;28;20578;-71
2022/04/26 05:47:35;;;;;;;16.37;3.13;;;;;;;;;;5053146;28;20522;-71
2022/04/26 05:50:03;;;;;;;13.93;2.20;;;;;;;;;;5053776;28;20447;-71
2022/04/26 05:52:30;;;;;;;15.13;3.10;;;;;;;;;;5053812;28;20441;-71
2022/04/26 05:54:58;;;;;;;14.73;2.90;;;;;;;;;;5053879;28;20523;-71
2022/04/26 05:57:27;;;;;;;17.13;2.27;;;;;;;;;;5053028;28;20984;-71
2022/04/26 05:59:54;;;;;;;13.17;2.67;;;;;;;;;;5053518;28;20437;-71
2022/04/26 06:02:22;;;;;;;14.33;2.60;;;;;;;;;;5053807;28;20794;-72
2022/04/26 06:04:51;;;;;;;15.00;2.50;;;;;;;;;;5053597;28;20455;-71
2022/04/26 06:07:19;;;;;;;14.23;2.67;;;;;;;;;;5053520;28;20434;-71
2022/04/26 06:09:46;;;;;;;13.90;2.40;;;;;;;;;;5053531;28;20440;-71
2022/04/26 06:12:14;;;;;;;14.23;2.20;;;;;;;;;;5053255;28;20444;-72
2022/04/26 06:14:41;;;;;;;15.87;2.40;;;;;;;;;;5053575;28;20436;-71
2022/04/26 06:17:09;;;;;;;15.97;2.67;;;;;;;;;;5053620;28;20444;-71
2022/04/26 06:19:36;;;;;;;12.80;2.10;;;;;;;;;;5053243;28;20452;-71
2022/04/26 06:22:05;;;;;;;17.10;2.07;;;;;;;;;;5053173;28;20450;-71
2022/04/26 06:24:33;;;;;;;12.90;2.30;;;;;;;;;;5053168;28;20444;-71
2022/04/26 06:27:02;;;;;;;13.60;2.40;;;;;;;;;;5052937;28;20485;-72
2022/04/26 06:29:30;;;;;;;15.80;2.47;;;;;;;;;;5052816;28;20438;-72
2022/04/26 06:31:58;;;;;;;14.00;2.40;;;;;;;;;;5053378;28;20446;-71
2022/04/26 06:34:26;;;;;;;13.27;2.20;;;;;;;;;;5052957;28;20471;-71
2022/04/26 06:36:53;;;;;;;13.53;2.60;;;;;;;;;;5053137;28;20499;-72
2022/04/26 06:39:22;;;;;;;17.47;2.93;;;;;;;;;;5052566;28;20455;-71
2022/04/26 06:41:50;;;;;;;16.73;2.37;;;;;;;;;;5052772;28;20993;-71
2022/04/26 06:44:18;;;;;;;19.03;2.60;;;;;;;;;;5052777;28;20436;-71
2022/04/26 06:46:46;;;;;;;17.30;2.47;;;;;;;;;;5052777;28;20482;-72
2022/04/26 06:49:13;;;;;;;14.40;2.47;;;;;;;;;;5052406;28;20449;-72
2022/04/26 06:51:43;;;;;;;14.10;2.20;;;;;;;;;;5052748;28;20951;-71
2022/04/26 06:54:11;;;;;;;13.53;2.70;;;;;;;;;;5052582;28;20942;-71
2022/04/26 06:56:41;;;;;;;13.87;2.20;;;;;;;;;;5052353;28;20464;-71
2022/04/26 06:59:08;;;;;;;15.23;2.50;;;;;;;;;;5052109;28;20456;-72
2022/04/26 07:01:36;;;;;;;13.13;2.43;;;;;;;;;;5052416;28;20440;-71
2022/04/26 07:04:03;;;;;;;14.50;2.27;;;;;;;;;;5052516;28;20455;-72
2022/04/26 07:06:31;;;;;;;12.90;2.13;;;;;;;;;;5052450;28;20479;-71
2022/04/26 07:08:59;;;;;;;14.60;2.27;;;;;;;;;;5052553;28;20444;-72
2022/04/26 07:11:27;;;;;;;13.20;2.30;;;;;;;;;;5052284;28;20490;-72
2022/04/26 07:13:57;;;;;;;15.17;2.80;;;;;;;;;;5052596;28;20498;-72
2022/04/26 07:16:25;;;;;;;14.13;2.70;;;;;;;;;;5052247;28;21024;-72
2022/04/26 07:18:52;;;;;;;13.83;2.80;;;;;;;;;;5052044;28;20532;-71
2022/04/26 07:21:20;;;;;;;15.10;2.90;;;;;;;;;;5052214;28;20432;-72
2022/04/26 07:23:47;;;;;;;13.20;2.30;;;;;;;;;;5052942;28;20439;-72
2022/04/26 07:26:15;;;;;;;14.70;2.80;;;;;;;;;;5052030;28;20490;-71
2022/04/26 07:28:42;;;;;;;16.07;3.20;;;;;;;;;;5051978;28;20444;-71
2022/04/26 07:31:11;;;;;;;17.00;2.97;;;;;;;;;;5051977;28;20473;-71
2022/04/26 07:36:24;;;;;;;13.80;2.70;;;;;;;;;;5052380;28;20494;-71
2022/04/26 07:38:51;;;;;;;13.50;2.50;;;;;;;;;;5051999;28;20972;-72
2022/04/26 07:41:19;;;;;;;15.80;2.23;;;;;;;;;;5051563;28;20448;-72
2022/04/26 07:43:47;;;;;;;13.80;2.90;;;;;;;;;;5051736;28;20443;-72
2022/04/26 07:46:16;;;;;;;14.77;2.60;;;;;;;;;;5051707;28;20497;-72
2022/04/26 07:48:43;;;;;;;15.37;2.67;;;;;;;;;;5051711;28;20444;-71
2022/04/26 07:51:11;;;;;;;14.47;2.90;;;;;;;;;;5051662;28;20909;-73
2022/04/26 07:53:39;;;;;;;17.20;3.13;;;;;;;;;;5051662;28;20442;-71
2022/04/26 07:56:06;;;;;;;15.40;2.63;;;;;;;;;;5051253;28;20452;-72
2022/04/26 07:58:34;;;;;;;13.00;2.17;;;;;;;;;;5051518;28;20446;-71
2022/04/26 08:01:03;;;;;;;18.83;2.33;;;;;;;;;;5051941;28;20447;-71
2022/04/26 08:03:33;;;;;;;13.00;2.10;;;;;;;;;;5051941;28;20809;-71
2022/04/26 08:06:01;;;;;;;13.73;2.10;;;;;;;;;;5051620;28;21023;-72
2022/04/26 08:08:28;;;;;;;12.80;1.90;;;;;;;;;;5051943;28;20450;-71
2022/04/26 08:10:56;;;;;;;19.00;2.53;;;;;;;;;;5054645;28;20808;-71
2022/04/26 08:13:23;;;;;;;15.50;3.10;;;;;;;;;;5055394;28;20438;-71
2022/04/26 08:15:50;;;;;;;13.77;1.90;;;;;;;;;;5055764;28;20435;-71
2022/04/26 08:18:18;;;;;;;13.10;1.90;;;;;;;;;;5055488;28;20442;-71
2022/04/26 08:20:47;;;;;;;13.40;2.40;;;;;;;;;;5055659;28;20848;-71
2022/04/26 08:23:15;;;;;;;12.50;1.77;;;;;;;;;;5055734;28;20786;-71
2022/04/26 08:28:28;;;;;;;15.60;1.80;;;;;;;;;;5055771;28;20798;-71
2022/04/26 08:30:56;;;;;;;14.10;2.00;;;;;;;;;;5055888;28;20432;-71
2022/04/26 08:33:24;;;;;;;12.43;1.87;;;;;;;;;;5055152;28;20497;-72
2022/04/26 08:35:53;;;;;;;13.97;2.20;;;;;;;;;;5055190;28;20840;-72
2022/04/26 08:38:20;;;;;;;20.93;2.40;;;;;;;;;;5055228;28;20439;-71
2022/04/26 08:40:48;;;;;;;12.03;1.90;;;;;;;;;;5055304;28;20470;-72
2022/04/26 08:43:15;;;;;;;12.37;1.73;;;;;;;;;;5055137;28;20516;-72
2022/04/26 08:45:46;;;;;;;13.50;2.40;;;;;;;;;;5055196;28;20445;-71
2022/04/26 08:51:00;;;;;;;13.50;2.00;;;;;;;;;;5055182;28;20435;-71
2022/04/26 08:53:28;;;;;;;13.80;1.73;;;;;;;;;;5054722;28;20933;-72
2022/04/26 08:55:56;;;;;;;14.73;1.80;;;;;;;;;;5054746;28;20442;-71
2022/04/26 08:58:25;;;;;;;13.33;1.97;;;;;;;;;;5054814;28;20856;-71
2022/04/26 09:01:10;;;;;;;12.07;1.80;;;;;;;;;;5054647;28;20440;-72
2022/04/26 09:03:38;;;;;;;12.30;1.83;;;;;;;;;;5054690;28;20447;-71
2022/04/26 09:06:09;;;;;;;15.13;1.80;;;;;;;;;;5054823;28;20476;-71
2022/04/26 09:08:37;;;;;;;12.97;1.90;;;;;;;;;;5054777;28;20947;-71
2022/04/26 09:11:05;;;;;;;12.07;1.80;;;;;;;;;;5054566;28;20840;-71
2022/04/26 09:13:42;;;;;;;13.27;1.73;;;;;;;;;;5054460;28;20471;-72
2022/04/26 09:16:17;;;;;;;11.60;1.37;;;;;;;;;;5054676;28;20972;-71
2022/04/26 09:18:52;;;;;;;13.17;1.70;;;;;;;;;;5054383;28;20944;-71
2022/04/26 09:21:21;;;;;;;13.10;1.70;;;;;;;;;;5053673;28;20877;-71
2022/04/26 09:23:49;;;;;;;12.87;1.70;;;;;;;;;;5054536;28;20435;-72
2022/04/26 09:26:18;;;;;;;14.10;1.97;;;;;;;;;;5054451;28;20571;-72
2022/04/26 09:28:46;;;;;;;14.80;1.47;;;;;;;;;;5054495;28;20446;-72
2022/04/26 09:31:18;;;;;;;13.03;1.40;;;;;;;;;;5053953;28;21014;-72
2022/04/26 09:33:49;;;;;;;15.83;1.67;;;;;;;;;;5054490;28;20810;-72
2022/04/26 09:36:17;;;;;;;13.13;2.03;;;;;;;;;;5054205;28;20552;-72
2022/04/26 09:38:51;;;;;;;12.67;1.57;;;;;;;;;;5054006;28;20834;-72
2022/04/26 09:41:19;;;;;;;13.50;1.50;;;;;;;;;;5054185;28;20981;-71
2022/04/26 09:43:56;;;;;;;12.10;1.40;;;;;;;;;;5054083;28;20444;-72
2022/04/26 09:46:25;;;;;;;15.47;2.20;;;;;;;;;;5054020;28;20488;-71
2022/04/26 09:48:54;;;;;;;12.80;1.80;;;;;;;;;;5053843;28;20526;-71
2022/04/26 09:51:21;;;;;;;12.87;1.87;;;;;;;;;;5053567;28;20508;-72
2022/04/26 09:53:50;;;;;;;11.90;1.43;;;;;;;;;;5053763;28;20451;-72
2022/04/26 09:56:21;;;;;;;14.50;1.80;;;;;;;;;;5053465;28;20457;-72
2022/04/26 09:58:48;;;;;;;12.30;1.60;;;;;;;;;;5053955;28;20819;-71
2022/04/26 10:01:16;;;;;;;12.53;1.70;;;;;;;;;;5053601;28;20803;-72
2022/04/26 10:03:47;;;;;;;12.40;1.90;;;;;;;;;;5053533;28;20521;-72
2022/04/26 10:06:16;;;;;;;15.23;1.73;;;;;;;;;;5053840;28;20450;-72
2022/04/26 10:08:44;;;;;;;12.50;1.57;;;;;;;;;;5053968;28;20439;-71
2022/04/26 10:11:13;;;;;;;13.63;1.87;;;;;;;;;;5053439;28;20500;-72
2022/04/26 10:13:43;;;;;;;13.17;1.80;;;;;;;;;;5053389;28;20446;-72
2022/04/26 10:16:11;;;;;;;12.60;1.70;;;;;;;;;;5053402;28;20428;-72
2022/04/26 10:18:44;;;;;;;15.13;1.97;;;;;;;;;;5053516;28;20435;-71
2022/04/26 10:21:13;;;;;;;13.70;1.60;;;;;;;;;;5053057;28;20529;-72
2022/04/26 10:24:02;;;;;;;12.00;1.60;;;;;;;;;;5053278;28;20476;-72
2022/04/26 10:26:31;;;;;;;12.10;1.50;;;;;;;;;;5053094;28;20491;-72
2022/04/26 10:28:59;;;;;;;11.80;1.40;;;;;;;;;;5053106;28;20476;-72
2022/04/26 10:31:37;;;;;;;14.40;1.50;;;;;;;;;;5052958;28;20443;-71
2022/04/26 10:34:17;;;;;;;12.40;1.30;;;;;;;;;;5052991;28;20860;-72
2022/04/26 10:36:45;;;;;;;12.40;1.40;;;;;;;;;;5053265;28;20480;-72
2022/04/26 10:39:31;;;;;;;11.60;1.33;;;;;;;;;;5052744;28;20473;-71
2022/04/26 10:42:01;;;;;;;12.00;1.50;;;;;;;;;;5053450;28;20480;-72
2022/04/26 10:44:33;;;;;;;11.80;1.60;;;;;;;;;;5053123;28;20802;-72
2022/04/26 10:47:19;;;;;;;12.47;1.70;;;;;;;;;;5052959;28;21003;-72
2022/04/26 10:49:47;;;;;;;13.43;1.57;;;;;;;;;;5052620;28;20444;-72
2022/04/26 10:52:34;;;;;;;12.30;1.60;;;;;;;;;;5052766;28;20519;-72
2022/04/26 10:55:03;;;;;;;12.30;1.50;;;;;;;;;;5053326;28;20439;-72
2022/04/26 10:57:33;;;;;;;13.13;1.43;;;;;;;;;;5051889;28;20467;-72
2022/04/26 11:00:01;;;;;;;13.57;1.60;;;;;;;;;;5052501;28;20448;-72
2022/04/26 11:02:31;;;;;;;11.87;1.30;;;;;;;;;;5052443;28;20449;-72
2022/04/26 11:04:59;;;;;;;11.70;1.30;;;;;;;;;;5052416;28;20449;-72
2022/04/26 11:07:27;;;;;;;16.17;2.07;;;;;;;;;;5052300;28;20848;-72
2022/04/26 11:09:55;;;;;;;12.60;1.57;;;;;;;;;;5052419;28;21034;-72
2022/04/26 11:12:23;;;;;;;13.37;1.63;;;;;;;;;;5052185;28;20451;-72
2022/04/26 11:14:55;;;;;;;13.17;1.80;;;;;;;;;;5052404;28;21007;-72
2022/04/26 11:17:24;;;;;;;12.00;1.50;;;;;;;;;;5052374;28;20449;-72
2022/04/26 11:19:51;;;;;;;12.00;1.37;;;;;;;;;;5052115;28;21052;-72
2022/04/26 11:22:19;;;;;;;12.93;1.33;;;;;;;;;;5052379;28;20825;-72
2022/04/26 11:30:24;;;;;;;12.50;1.40;;;;;;;;;;5052367;28;20855;-72
2022/04/26 11:32:51;;;;;;;12.67;1.40;;;;;;;;;;5052372;28;20868;-72
2022/04/26 11:35:20;;;;;;;12.27;1.30;;;;;;;;;;5051348;28;20454;-72
2022/04/26 11:37:48;;;;;;;11.33;1.20;;;;;;;;;;5052026;28;20446;-72
2022/04/26 11:40:25;;;;;;;12.10;1.47;;;;;;;;;;5051640;28;20454;-72
2022/04/26 11:42:53;;;;;;;13.07;1.37;;;;;;;;;;5051967;28;20457;-72
2022/04/26 11:45:22;;;;;;;11.47;1.20;;;;;;;;;;5051338;28;20438;-72
2022/04/26 11:47:51;;;;;;;11.60;1.40;;;;;;;;;;5051663;28;20576;-72
2022/04/26 11:50:20;;;;;;;12.53;1.50;;;;;;;;;;5052452;28;20918;-72
2022/04/26 11:52:48;;;;;;;13.63;1.60;;;;;;;;;;5051821;28;20975;-72
2022/04/26 11:55:22;;;;;;;13.00;1.70;;;;;;;;;;5051665;28;20488;-72
2022/04/26 11:57:50;;;;;;;15.23;1.87;;;;;;;;;;5051540;28;20463;-72
2022/04/26 12:00:19;;;;;;;14.00;1.67;;;;;;;;;;5051718;28;20438;-72
2022/04/26 12:02:48;;;;;;;11.77;1.40;;;;;;;;;;5051829;28;20512;-72
2022/04/26 12:05:17;;;;;;;14.33;1.73;;;;;;;;;;5051702;28;20451;-72
2022/04/26 12:07:44;;;;;;;11.60;1.30;;;;;;;;;;5051454;28;20489;-72
2022/04/26 12:10:28;;;;;;;12.60;1.30;;;;;;;;;;5051663;28;20444;-72
2022/04/26 12:12:57;;;;;;;14.83;1.47;;;;;;;;;;5051810;28;20805;-72
2022/04/26 12:15:28;;;;;;;11.90;1.40;;;;;;;;;;5051630;28;20448;-72
2022/04/26 12:18:07;;;;;;;13.20;1.30;;;;;;;;;;5051622;28;20456;-72
2022/04/26 12:20:36;;;;;;;11.70;1.40;;;;;;;;;;5051631;28;20502;-72
2022/04/26 12:23:04;;;;;;;11.80;1.33;;;;;;;;;;5051509;28;20445;-72
2022/04/26 12:25:33;;;;;;;12.10;1.43;;;;;;;;;;5051180;28;20480;-72
2022/04/26 12:28:05;;;;;;;11.60;1.43;;;;;;;;;;5051709;28;20505;-73
2022/04/26 12:30:33;;;;;;;11.60;1.40;;;;;;;;;;5051794;28;20481;-72
2022/04/26 12:33:01;;;;;;;12.77;1.63;;;;;;;;;;5051627;28;20443;-73
2022/04/26 12:35:30;;;;;;;11.33;1.60;;;;;;;;;;5050840;28;20462;-72
2022/04/26 12:38:07;;;;;;;12.20;1.50;;;;;;;;;;5051635;28;20440;-72
2022/04/26 12:40:35;;;;;;;14.80;1.90;;;;;;;;;;5051432;28;20453;-73
2022/04/26 12:43:03;;;;;;;12.33;1.67;;;;;;;;;;5051236;28;20450;-73
2022/04/26 12:45:30;;;;;;;12.20;1.50;;;;;;;;;;5051149;28;20448;-72
2022/04/26 12:50:51;;;;;;;12.13;1.60;;;;;;;;;;5051607;28;20426;-73
2022/04/26 12:53:25;;;;;;;12.20;1.40;;;;;;;;;;5051134;28;20442;-72
2022/04/26 12:55:54;;;;;;;11.67;1.80;;;;;;;;;;5051194;28;20833;-72
2022/04/26 12:58:36;;;;;;;11.90;1.57;;;;;;;;;;5054282;28;20443;-73
2022/04/26 13:01:04;;;;;;;14.40;1.80;;;;;;;;;;5055115;28;20432;-73
2022/04/26 13:03:31;;;;;;;13.03;1.60;;;;;;;;;;5054462;28;20454;-73
2022/04/26 13:06:11;;;;;;;12.43;1.57;;;;;;;;;;5054624;28;20446;-73
2022/04/26 13:08:39;;;;;;;16.40;1.50;;;;;;;;;;5054623;28;20479;-73
2022/04/26 13:11:06;;;;;;;11.60;1.37;;;;;;;;;;5054522;28;20453;-73
2022/04/26 13:13:34;;;;;;;12.37;1.50;;;;;;;;;;5054275;28;20955;-72
2022/04/26 13:16:02;;;;;;;15.13;1.80;;;;;;;;;;5054758;28;20522;-73
2022/04/26 13:18:30;;;;;;;18.13;1.87;;;;;;;;;;5054430;28;20456;-73
2022/04/26 13:20:57;;;;;;;11.67;1.40;;;;;;;;;;5054775;28;20804;-72
2022/04/26 13:23:29;;;;;;;15.90;1.47;;;;;;;;;;5054183;28;20446;-73
2022/04/26 13:25:58;;;;;;;12.40;1.40;;;;;;;;;;5054333;28;20478;-72
2022/04/26 13:28:26;;;;;;;12.10;1.43;;;;;;;;;;5054378;28;20866;-73
2022/04/26 13:30:54;;;;;;;12.53;1.40;;;;;;;;;;5054353;28;20940;-73
2022/04/26 13:33:22;;;;;;;14.90;1.70;;;;;;;;;;5054129;28;20819;-73
2022/04/26 13:35:49;;;;;;;12.80;1.60;;;;;;;;;;5054224;28;20475;-73
2022/04/26 13:38:19;;;;;;;13.00;1.60;;;;;;;;;;5054059;28;20577;-73
2022/04/26 13:40:52;;;;;;;11.97;1.50;;;;;;;;;;5054414;28;20837;-73
2022/04/26 13:43:23;;;;;;;11.77;1.40;;;;;;;;;;5053967;28;20997;-73
2022/04/26 13:45:51;;;;;;;12.47;1.33;;;;;;;;;;5054444;28;20442;-72
2022/04/26 13:48:19;;;;;;;12.70;1.73;;;;;;;;;;5053828;28;20486;-73
2022/04/26 13:50:46;;;;;;;12.30;1.80;;;;;;;;;;5053800;28;20868;-73
2022/04/26 13:53:13;;;;;;;12.20;1.70;;;;;;;;;;5053965;28;20444;-73
2022/04/26 13:55:41;;;;;;;12.57;1.50;;;;;;;;;;5053775;28;20469;-73
2022/04/26 13:58:10;;;;;;;12.73;1.40;;;;;;;;;;5053436;28;20469;-73
2022/04/26 14:00:38;;;;;;;11.27;1.43;;;;;;;;;;5053951;28;20449;-73
2022/04/26 14:03:06;;;;;;;12.57;1.40;;;;;;;;;;5053496;28;20447;-73
2022/04/26 14:05:35;;;;;;;11.40;1.20;;;;;;;;;;5053724;28;20449;-73
2022/04/26 14:08:03;;;;;;;14.33;1.90;;;;;;;;;;5053872;28;20897;-73
2022/04/26 14:10:31;;;;;;;14.47;1.90;;;;;;;;;;5053766;28;20434;-73
2022/04/26 14:12:59;;;;;;;12.70;1.50;;;;;;;;;;5053672;28;20471;-73
2022/04/26 14:23:43;;;;;;;12.67;1.40;;;;;;;;;;5053531;28;20432;-73
2022/04/26 14:26:11;;;;;;;12.80;1.47;;;;;;;;;;5053241;28;20441;-73
2022/04/26 14:28:38;;;;;;;17.63;1.83;;;;;;;;;;5053201;28;20492;-74
2022/04/26 14:31:07;;;;;;;12.90;1.50;;;;;;;;;;5053069;28;20451;-73
2022/04/26 14:33:34;;;;;;;12.90;1.70;;;;;;;;;;5052949;28;20435;-73
2022/04/26 14:36:02;;;;;;;11.80;1.40;;;;;;;;;;5053016;28;20493;-73
2022/04/26 14:38:30;;;;;;;13.63;1.67;;;;;;;;;;5052938;28;20471;-73
2022/04/26 14:40:57;;;;;;;11.53;1.40;;;;;;;;;;5053079;28;20443;-72
2022/04/26 14:43:24;;;;;;;13.90;1.90;;;;;;;;;;5052607;28;20481;-73
2022/04/26 14:45:54;;;;;;;12.00;1.30;;;;;;;;;;5052808;28;20811;-73
2022/04/26 14:48:23;;;;;;;11.67;1.47;;;;;;;;;;5052673;28;20476;-73
2022/04/26 14:50:51;;;;;;;12.67;1.50;;;;;;;;;;5052624;28;20454;-73
2022/04/26 14:53:19;;;;;;;12.40;1.50;;;;;;;;;;5052395;28;20452;-73
2022/04/26 14:55:47;;;;;;;12.43;1.80;;;;;;;;;;5052571;28;20443;-72
2022/04/26 14:58:14;;;;;;;12.33;1.70;;;;;;;;;;5052131;28;20466;-73
2022/04/26 15:00:42;;;;;;;13.23;1.63;;;;;;;;;;5052863;28;20817;-73
2022/04/26 15:03:09;;;;;;;14.50;1.73;;;;;;;;;;5052677;28;20453;-73
2022/04/26 15:05:38;;;;;;;13.57;1.60;;;;;;;;;;5052493;28;20443;-73
2022/04/26 15:10:51;;;;;;;13.00;1.97;;;;;;;;;;5052767;28;20436;-73
2022/04/26 15:18:49;;;;;;;12.53;1.80;;;;;;;;;;5052138;28;20491;-73
2022/04/26 15:21:18;;;;;;;13.17;1.60;;;;;;;;;;5051735;28;20447;-73
2022/04/26 15:23:46;;;;;;;13.00;1.50;;;;;;;;;;5052259;28;20443;-72
2022/04/26 15:26:14;;;;;;;12.20;1.93;;;;;;;;;;5052442;28;20439;-74
2022/04/26 15:28:42;;;;;;;30.00;2.70;;;;;;;;;;5051893;28;20481;-73
2022/04/26 15:31:10;;;;;;;13.00;1.70;;;;;;;;;;5052280;28;20453;-73
2022/04/26 15:33:38;;;;;;;13.77;1.70;;;;;;;;;;5052059;28;20452;-73
2022/04/26 15:36:06;;;;;;;15.07;1.67;;;;;;;;;;5051757;28;20484;-73
2022/04/26 15:38:35;;;;;;;12.43;1.50;;;;;;;;;;5051903;28;20972;-73
2022/04/26 15:41:05;;;;;;;13.27;1.50;;;;;;;;;;5050559;28;20468;-72
2022/04/26 15:43:33;;;;;;;12.00;1.50;;;;;;;;;;5052156;28;20449;-73
2022/04/26 15:46:00;;;;;;;12.60;1.53;;;;;;;;;;5052263;28;20444;-73
2022/04/26 15:48:28;;;;;;;20.93;3.33;;;;;;;;;;5051670;28;21039;-73
2022/04/26 15:50:55;;;;;;;26.63;5.60;;;;;;;;;;5052201;28;20439;-73
2022/04/26 15:53:23;;;;;;;20.10;3.87;;;;;;;;;;5051710;28;20443;-73
2022/04/26 15:55:52;;;;;;;12.77;1.80;;;;;;;;;;5051651;28;20831;-72
2022/04/26 15:58:19;;;;;;;12.17;2.00;;;;;;;;;;5051498;28;20470;-73
2022/04/26 16:00:48;;;;;;;15.77;1.73;;;;;;;;;;5052008;28;20923;-73
2022/04/26 16:03:15;;;;;;;13.50;2.13;;;;;;;;;;5051580;28;20451;-73
2022/04/26 16:05:44;;;;;;;13.33;1.93;;;;;;;;;;5051921;28;20814;-73
2022/04/26 16:08:12;;;;;;;14.60;2.10;;;;;;;;;;5051644;28;20490;-73
2022/04/26 16:21:41;;;;;;;12.43;1.80;;;;;;;;;;5051703;28;20430;-72
2022/04/26 16:24:08;;;;;;;13.37;1.73;;;;;;;;;;5051404;28;20448;-72
2022/04/26 16:26:36;;;;;;;13.03;2.10;;;;;;;;;;5051634;28;20449;-72
2022/04/26 16:29:07;;;;;;;15.23;1.80;;;;;;;;;;5051268;28;20847;-73
2022/04/26 16:31:38;;;;;;;15.20;1.70;;;;;;;;;;5053982;28;20446;-72
2022/04/26 16:34:06;;;;;;;12.80;1.80;;;;;;;;;;5055972;28;20510;-72
2022/04/26 16:36:35;;;;;;;12.90;1.80;;;;;;;;;;5055117;28;20473;-72
2022/04/26 16:39:03;;;;;;;12.30;1.47;;;;;;;;;;5055332;28;20445;-72
2022/04/26 16:41:31;;;;;;;13.70;1.70;;;;;;;;;;5054825;28;20467;-72
2022/04/26 16:43:59;;;;;;;12.67;1.87;;;;;;;;;;5055932;28;20445;-72
2022/04/26 16:46:30;;;;;;;14.93;1.90;;;;;;;;;;5055339;28;20448;-72
2022/04/26 16:48:58;;;;;;;13.23;1.83;;;;;;;;;;5055299;28;20489;-72
2022/04/26 16:51:29;;;;;;;21.00;1.87;;;;;;;;;;5054713;28;20439;-72
2022/04/26 16:53:57;;;;;;;17.43;2.30;;;;;;;;;;5054927;28;20527;-72
2022/04/26 16:56:24;;;;;;;13.40;2.03;;;;;;;;;;5054825;28;20894;-72
2022/04/26 16:58:52;;;;;;;13.00;2.20;;;;;;;;;;5055195;28;20449;-72
2022/04/26 17:01:19;;;;;;;14.70;2.13;;;;;;;;;;5054538;28;20447;-72
2022/04/26 17:03:48;;;;;;;14.00;1.80;;;;;;;;;;5054888;28;20554;-72
2022/04/26 17:06:16;;;;;;;12.30;1.60;;;;;;;;;;5054682;28;20444;-72
2022/04/26 17:08:44;;;;;;;12.30;1.93;;;;;;;;;;5054585;28;20480;-73
2022/04/26 17:13:56;;;;;;;12.10;1.70;;;;;;;;;;5054896;28;20527;-72
2022/04/26 17:16:23;;;;;;;13.37;1.73;;;;;;;;;;5054712;28;20440;-72
2022/04/26 17:18:52;;;;;;;11.80;1.60;;;;;;;;;;5054394;28;20455;-72
2022/04/26 17:21:21;;;;;;;12.93;1.87;;;;;;;;;;5054192;28;20436;-72
2022/04/26 17:23:48;;;;;;;13.63;1.70;;;;;;;;;;5054353;28;20514;-72
2022/04/26 17:26:17;;;;;;;12.43;1.73;;;;;;;;;;5054618;28;20435;-73
2022/04/26 17:28:45;;;;;;;13.67;1.70;;;;;;;;;;5054279;28;20571;-72
2022/04/26 17:31:14;;;;;;;13.10;1.60;;;;;;;;;;5054355;28;20428;-72
2022/04/26 17:33:41;;;;;;;13.50;1.60;;;;;;;;;;5054252;28;20448;-72
2022/04/26 17:36:10;;;;;;;13.27;1.63;;;;;;;;;;5054070;28;21091;-72
2022/04/26 17:38:38;;;;;;;14.23;1.63;;;;;;;;;;5054095;28;20534;-73
2022/04/26 17:41:05;;;;;;;12.70;1.70;;;;;;;;;;5054197;28;20438;-72
2022/04/26 17:43:33;;;;;;;13.13;1.83;;;;;;;;;;5053058;28;20451;-72
2022/04/26 17:46:01;;;;;;;12.30;1.80;;;;;;;;;;5053880;28;20440;-72
2022/04/26 17:48:28;;;;;;;13.07;1.40;;;;;;;;;;5053991;28;20432;-72
2022/04/26 17:50:55;;;;;;;11.97;1.50;;;;;;;;;;5053900;28;20444;-72
2022/04/26 17:58:50;;;;;;;11.90;1.60;;;;;;;;;;5053884;28;20439;-72
2022/04/26 18:01:18;;;;;;;12.40;1.63;;;;;;;;;;5053601;28;20965;-72
2022/04/26 18:03:46;;;;;;;14.00;1.70;;;;;;;;;;5053786;28;20470;-72
2022/04/26 18:06:13;;;;;;;11.93;1.40;;;;;;;;;;5053886;28;20535;-72
2022/04/26 18:08:43;;;;;;;12.53;1.50;;;;;;;;;;5053495;28;20440;-72
2022/04/26 18:11:11;;;;;;;13.23;1.50;;;;;;;;;;5053284;28;20447;-72
2022/04/26 18:13:38;;;;;;;12.50;1.60;;;;;;;;;;5053383;28;20444;-72
2022/04/26 18:16:07;;;;;;;14.53;1.80;;;;;;;;;;5053458;28;20432;-72
2022/04/26 18:18:35;;;;;;;12.60;1.80;;;;;;;;;;5053261;28;20468;-72
2022/04/26 18:21:03;;;;;;;12.67;1.80;;;;;;;;;;5053331;28;20451;-72
2022/04/26 18:23:30;;;;;;;16.67;2.20;;;;;;;;;;5052994;28;20444;-72
2022/04/26 18:26:12;;;;;;;13.50;1.90;;;;;;;;;;5053193;28;20436;-72
2022/04/26 18:28:40;;;;;;;17.90;1.70;;;;;;;;;;5053069;28;20444;-72
2022/04/26 18:31:07;;;;;;;12.57;1.90;;;;;;;;;;5053072;28;20451;-72
2022/04/26 18:33:35;;;;;;;19.57;1.80;;;;;;;;;;5053160;28;20488;-72
2022/04/26 18:36:04;;;;;;;12.30;1.77;;;;;;;;;;5052849;28;20845;-72
2022/04/26 18:38:31;;;;;;;13.33;1.80;;;;;;;;;;5052873;28;20527;-72
2022/04/26 18:41:00;;;;;;;11.90;1.47;;;;;;;;;;5052869;28;20450;-72
2022/04/26 18:43:28;;;;;;;16.03;1.70;;;;;;;;;;5052876;28;20446;-72
2022/04/26 18:45:57;;;;;;;12.47;1.70;;;;;;;;;;5052846;28;20497;-72
2022/04/26 18:48:24;;;;;;;17.63;2.30;;;;;;;;;;5052691;28;20813;-72
2022/04/26 18:50:52;;;;;;;12.23;1.70;;;;;;;;;;5052751;28;20526;-72
2022/04/26 18:53:19;;;;;;;12.50;1.57;;;;;;;;;;5052420;28;20455;-72
2022/04/26 18:55:49;;;;;;;11.80;1.80;;;;;;;;;;5052006;28;20440;-72
2022/04/26 18:58:18;;;;;;;12.17;1.70;;;;;;;;;;5052205;28;20464;-72
2022/04/26 19:00:46;;;;;;;14.10;1.60;;;;;;;;;;5052575;28;20448;-72
2022/04/26 19:03:15;;;;;;;16.43;1.77;;;;;;;;;;5052258;28;20444;-72
2022/04/26 19:05:42;;;;;;;12.53;1.60;;;;;;;;;;5052687;28;20446;-72
2022/04/26 19:08:09;;;;;;;12.93;1.90;;;;;;;;;;5052647;28;20779;-72